Terminal Aerodrome Forecast
Issued by NWS

Home | Current Version | Previous Version | Text Only | Print | Product List | Glossary On
Versions: 1 2 3 4 5 6 7 8 9 10 11 12 13
000
FTUS44 KLIX 221800 AAA
TAFGPT
TAF AMD
KGPT 221851Z 2219/2318 02008KT P6SM SCT100
      TEMPO 2219/2222 VRB15KT TSRA BKN030CB
     FM222200 04009KT P6SM VCTS BKN250CB
     FM230000 03008KT P6SM SCT250
     FM231500 04012KT P6SM SCT250=

USA.gov is the U.S. government's official web portal to all federal, state and local government web resources and services.